sensor_id;sensor_type;location;lat;lon;timestamp;P1;durP1;ratioP1;P2;durP2;ratioP2
67378;SDS011;54262;44.642;-0.974;2022-10-26T00:00:07;4.20;;;1.58;;
67378;SDS011;54262;44.642;-0.974;2022-10-26T00:02:33;1.48;;;1.20;;
67378;SDS011;54262;44.642;-0.974;2022-10-26T00:04:59;1.83;;;1.30;;
67378;SDS011;54262;44.642;-0.974;2022-10-26T00:07:27;2.60;;;1.20;;
67378;SDS011;54262;44.642;-0.974;2022-10-26T00:09:54;2.42;;;1.50;;
67378;SDS011;54262;44.642;-0.974;2022-10-26T00:12:20;2.05;;;1.60;;
67378;SDS011;54262;44.642;-0.974;2022-10-26T00:14:46;2.88;;;1.63;;
67378;SDS011;54262;44.642;-0.974;2022-10-26T00:17:12;4.60;;;2.08;;
67378;SDS011;54262;44.642;-0.974;2022-10-26T00:19:38;3.40;;;1.55;;
67378;SDS011;54262;44.642;-0.974;2022-10-26T00:22:04;1.77;;;1.30;;
67378;SDS011;54262;44.642;-0.974;2022-10-26T00:24:30;1.77;;;1.08;;
67378;SDS011;54262;44.642;-0.974;2022-10-26T00:26:56;1.92;;;1.40;;
67378;SDS011;54262;44.642;-0.974;2022-10-26T00:29:22;1.33;;;1.08;;
67378;SDS011;54262;44.642;-0.974;2022-10-26T00:31:48;4.25;;;1.98;;
67378;SDS011;54262;44.642;-0.974;2022-10-26T00:34:15;1.65;;;1.40;;
67378;SDS011;54262;44.642;-0.974;2022-10-26T00:36:41;1.75;;;1.35;;
67378;SDS011;54262;44.642;-0.974;2022-10-26T00:39:09;4.65;;;1.50;;
67378;SDS011;54262;44.642;-0.974;2022-10-26T00:41:37;1.90;;;1.08;;
67378;SDS011;54262;44.642;-0.974;2022-10-26T00:46:48;4.72;;;1.45;;
67378;SDS011;54262;44.642;-0.974;2022-10-26T00:49:15;6.18;;;1.40;;
67378;SDS011;54262;44.642;-0.974;2022-10-26T00:51:43;1.95;;;1.00;;
67378;SDS011;54262;44.642;-0.974;2022-10-26T00:54:12;2.63;;;1.60;;
67378;SDS011;54262;44.642;-0.974;2022-10-26T00:56:38;5.22;;;1.95;;
67378;SDS011;54262;44.642;-0.974;2022-10-26T00:59:06;2.28;;;1.55;;
67378;SDS011;54262;44.642;-0.974;2022-10-26T01:01:34;1.70;;;1.00;;
67378;SDS011;54262;44.642;-0.974;2022-10-26T01:04:01;1.88;;;1.00;;
67378;SDS011;54262;44.642;-0.974;2022-10-26T01:06:27;4.38;;;2.08;;
67378;SDS011;54262;44.642;-0.974;2022-10-26T01:08:54;1.35;;;0.95;;
67378;SDS011;54262;44.642;-0.974;2022-10-26T01:11:20;1.48;;;1.00;;
67378;SDS011;54262;44.642;-0.974;2022-10-26T01:13:46;5.97;;;1.20;;
67378;SDS011;54262;44.642;-0.974;2022-10-26T01:18:43;2.25;;;1.48;;
67378;SDS011;54262;44.642;-0.974;2022-10-26T01:21:15;3.97;;;1.30;;
67378;SDS011;54262;44.642;-0.974;2022-10-26T01:31:18;4.15;;;1.58;;
67378;SDS011;54262;44.642;-0.974;2022-10-26T01:33:48;3.08;;;1.40;;
67378;SDS011;54262;44.642;-0.974;2022-10-26T01:41:20;7.97;;;1.75;;
67378;SDS011;54262;44.642;-0.974;2022-10-26T01:46:15;2.25;;;1.55;;
67378;SDS011;54262;44.642;-0.974;2022-10-26T01:48:41;1.80;;;1.20;;
67378;SDS011;54262;44.642;-0.974;2022-10-26T01:51:09;2.17;;;1.58;;
67378;SDS011;54262;44.642;-0.974;2022-10-26T01:53:36;9.10;;;1.55;;
67378;SDS011;54262;44.642;-0.974;2022-10-26T01:56:08;3.58;;;1.58;;
67378;SDS011;54262;44.642;-0.974;2022-10-26T02:09:11;3.22;;;1.40;;
67378;SDS011;54262;44.642;-0.974;2022-10-26T02:11:41;1.45;;;1.13;;
67378;SDS011;54262;44.642;-0.974;2022-10-26T02:16:55;1.50;;;1.13;;
67378;SDS011;54262;44.642;-0.974;2022-10-26T02:19:39;2.47;;;1.35;;
67378;SDS011;54262;44.642;-0.974;2022-10-26T02:22:15;2.25;;;1.20;;
67378;SDS011;54262;44.642;-0.974;2022-10-26T02:24:43;2.58;;;1.15;;
67378;SDS011;54262;44.642;-0.974;2022-10-26T02:27:13;3.13;;;1.40;;
67378;SDS011;54262;44.642;-0.974;2022-10-26T02:29:41;1.48;;;1.20;;
67378;SDS011;54262;44.642;-0.974;2022-10-26T02:32:08;3.60;;;1.13;;
67378;SDS011;54262;44.642;-0.974;2022-10-26T02:34:35;1.73;;;1.45;;
67378;SDS011;54262;44.642;-0.974;2022-10-26T02:37:03;1.75;;;1.13;;
67378;SDS011;54262;44.642;-0.974;2022-10-26T02:39:29;1.52;;;1.20;;
67378;SDS011;54262;44.642;-0.974;2022-10-26T02:41:58;2.08;;;1.30;;
67378;SDS011;54262;44.642;-0.974;2022-10-26T02:44:25;2.38;;;1.05;;
67378;SDS011;54262;44.642;-0.974;2022-10-26T02:46:52;1.17;;;1.08;;
67378;SDS011;54262;44.642;-0.974;2022-10-26T02:49:19;1.58;;;1.10;;
67378;SDS011;54262;44.642;-0.974;2022-10-26T02:51:49;3.08;;;1.35;;
67378;SDS011;54262;44.642;-0.974;2022-10-26T02:57:00;1.40;;;1.30;;
67378;SDS011;54262;44.642;-0.974;2022-10-26T03:01:56;2.33;;;1.35;;
67378;SDS011;54262;44.642;-0.974;2022-10-26T03:04:27;2.05;;;1.38;;
67378;SDS011;54262;44.642;-0.974;2022-10-26T03:06:53;1.55;;;1.45;;
67378;SDS011;54262;44.642;-0.974;2022-10-26T03:09:19;2.10;;;1.40;;
67378;SDS011;54262;44.642;-0.974;2022-10-26T03:11:45;3.15;;;1.02;;
67378;SDS011;54262;44.642;-0.974;2022-10-26T03:14:11;2.05;;;1.17;;
67378;SDS011;54262;44.642;-0.974;2022-10-26T03:16:37;2.33;;;1.33;;
67378;SDS011;54262;44.642;-0.974;2022-10-26T03:19:04;2.88;;;1.10;;
67378;SDS011;54262;44.642;-0.974;2022-10-26T03:21:30;6.63;;;1.30;;
67378;SDS011;54262;44.642;-0.974;2022-10-26T03:23:56;1.95;;;0.77;;
67378;SDS011;54262;44.642;-0.974;2022-10-26T03:26:22;1.83;;;1.45;;
67378;SDS011;54262;44.642;-0.974;2022-10-26T03:28:48;2.63;;;1.10;;
67378;SDS011;54262;44.642;-0.974;2022-10-26T03:31:14;4.13;;;1.40;;
67378;SDS011;54262;44.642;-0.974;2022-10-26T03:33:40;2.70;;;1.10;;
67378;SDS011;54262;44.642;-0.974;2022-10-26T03:36:06;1.92;;;1.33;;
67378;SDS011;54262;44.642;-0.974;2022-10-26T03:38:33;2.20;;;1.05;;
67378;SDS011;54262;44.642;-0.974;2022-10-26T03:40:59;3.20;;;1.23;;
67378;SDS011;54262;44.642;-0.974;2022-10-26T03:43:25;2.08;;;1.38;;
67378;SDS011;54262;44.642;-0.974;2022-10-26T03:45:51;1.55;;;1.30;;
67378;SDS011;54262;44.642;-0.974;2022-10-26T03:48:17;2.15;;;1.08;;
67378;SDS011;54262;44.642;-0.974;2022-10-26T03:50:43;1.88;;;1.05;;
67378;SDS011;54262;44.642;-0.974;2022-10-26T03:53:09;1.30;;;1.20;;
67378;SDS011;54262;44.642;-0.974;2022-10-26T03:55:36;3.55;;;1.25;;
67378;SDS011;54262;44.642;-0.974;2022-10-26T03:58:02;3.17;;;1.45;;
67378;SDS011;54262;44.642;-0.974;2022-10-26T04:00:28;2.97;;;1.50;;
67378;SDS011;54262;44.642;-0.974;2022-10-26T04:02:55;1.33;;;1.23;;
67378;SDS011;54262;44.642;-0.974;2022-10-26T04:05:21;1.58;;;1.48;;
67378;SDS011;54262;44.642;-0.974;2022-10-26T04:07:51;3.38;;;1.30;;
67378;SDS011;54262;44.642;-0.974;2022-10-26T04:10:18;2.25;;;1.33;;
67378;SDS011;54262;44.642;-0.974;2022-10-26T04:12:44;1.35;;;0.77;;
67378;SDS011;54262;44.642;-0.974;2022-10-26T04:15:10;1.48;;;1.00;;
67378;SDS011;54262;44.642;-0.974;2022-10-26T04:17:36;1.15;;;0.95;;
67378;SDS011;54262;44.642;-0.974;2022-10-26T04:20:02;2.05;;;1.05;;
67378;SDS011;54262;44.642;-0.974;2022-10-26T04:22:28;2.53;;;1.13;;
67378;SDS011;54262;44.642;-0.974;2022-10-26T04:24:55;1.67;;;1.50;;
67378;SDS011;54262;44.642;-0.974;2022-10-26T04:27:21;1.17;;;1.08;;
67378;SDS011;54262;44.642;-0.974;2022-10-26T04:29:47;2.53;;;1.20;;
67378;SDS011;54262;44.642;-0.974;2022-10-26T04:32:13;1.58;;;0.95;;
67378;SDS011;54262;44.642;-0.974;2022-10-26T04:34:39;3.83;;;1.40;;
67378;SDS011;54262;44.642;-0.974;2022-10-26T04:37:05;1.88;;;1.00;;
67378;SDS011;54262;44.642;-0.974;2022-10-26T04:39:31;1.98;;;1.52;;
67378;SDS011;54262;44.642;-0.974;2022-10-26T04:41:57;1.98;;;1.20;;
67378;SDS011;54262;44.642;-0.974;2022-10-26T04:44:23;1.42;;;1.20;;
67378;SDS011;54262;44.642;-0.974;2022-10-26T04:46:50;4.07;;;1.00;;
67378;SDS011;54262;44.642;-0.974;2022-10-26T04:49:16;1.38;;;1.00;;
67378;SDS011;54262;44.642;-0.974;2022-10-26T04:51:42;8.30;;;2.20;;
67378;SDS011;54262;44.642;-0.974;2022-10-26T04:54:08;3.75;;;1.50;;
67378;SDS011;54262;44.642;-0.974;2022-10-26T04:56:34;2.53;;;1.35;;
67378;SDS011;54262;44.642;-0.974;2022-10-26T04:59:00;1.38;;;0.90;;
67378;SDS011;54262;44.642;-0.974;2022-10-26T05:01:26;1.52;;;1.10;;
67378;SDS011;54262;44.642;-0.974;2022-10-26T05:03:53;2.05;;;1.25;;
67378;SDS011;54262;44.642;-0.974;2022-10-26T05:06:19;1.45;;;0.88;;
67378;SDS011;54262;44.642;-0.974;2022-10-26T05:08:45;3.22;;;1.40;;
67378;SDS011;54262;44.642;-0.974;2022-10-26T05:11:12;1.10;;;0.70;;
67378;SDS011;54262;44.642;-0.974;2022-10-26T05:13:38;3.67;;;1.10;;
67378;SDS011;54262;44.642;-0.974;2022-10-26T05:16:04;1.10;;;0.90;;
67378;SDS011;54262;44.642;-0.974;2022-10-26T05:18:31;1.00;;;1.00;;
67378;SDS011;54262;44.642;-0.974;2022-10-26T05:20:57;1.77;;;1.17;;
67378;SDS011;54262;44.642;-0.974;2022-10-26T05:23:23;2.17;;;1.50;;
67378;SDS011;54262;44.642;-0.974;2022-10-26T05:25:49;4.72;;;1.33;;
67378;SDS011;54262;44.642;-0.974;2022-10-26T05:28:15;1.95;;;1.13;;
67378;SDS011;54262;44.642;-0.974;2022-10-26T05:30:43;1.85;;;1.13;;
67378;SDS011;54262;44.642;-0.974;2022-10-26T05:33:10;1.17;;;1.08;;
67378;SDS011;54262;44.642;-0.974;2022-10-26T05:35:36;1.42;;;1.33;;
67378;SDS011;54262;44.642;-0.974;2022-10-26T05:38:09;0.80;;;0.80;;
67378;SDS011;54262;44.642;-0.974;2022-10-26T05:40:35;2.20;;;1.45;;
67378;SDS011;54262;44.642;-0.974;2022-10-26T05:43:02;1.63;;;1.10;;
67378;SDS011;54262;44.642;-0.974;2022-10-26T05:45:28;1.85;;;1.30;;
67378;SDS011;54262;44.642;-0.974;2022-10-26T05:47:54;1.45;;;1.10;;
67378;SDS011;54262;44.642;-0.974;2022-10-26T05:50:20;1.33;;;1.23;;
67378;SDS011;54262;44.642;-0.974;2022-10-26T05:52:47;1.25;;;1.05;;
67378;SDS011;54262;44.642;-0.974;2022-10-26T05:55:16;1.40;;;1.23;;
67378;SDS011;54262;44.642;-0.974;2022-10-26T05:57:42;4.90;;;0.77;;
67378;SDS011;54262;44.642;-0.974;2022-10-26T06:00:11;4.97;;;1.73;;
67378;SDS011;54262;44.642;-0.974;2022-10-26T06:05:06;3.55;;;0.98;;
67378;SDS011;54262;44.642;-0.974;2022-10-26T06:07:35;2.83;;;1.30;;
67378;SDS011;54262;44.642;-0.974;2022-10-26T06:10:02;3.80;;;1.65;;
67378;SDS011;54262;44.642;-0.974;2022-10-26T06:12:28;1.27;;;1.00;;
67378;SDS011;54262;44.642;-0.974;2022-10-26T06:14:54;1.73;;;1.30;;
67378;SDS011;54262;44.642;-0.974;2022-10-26T06:17:24;3.28;;;0.95;;
67378;SDS011;54262;44.642;-0.974;2022-10-26T06:22:47;1.20;;;1.10;;
67378;SDS011;54262;44.642;-0.974;2022-10-26T06:25:19;1.40;;;0.85;;
67378;SDS011;54262;44.642;-0.974;2022-10-26T06:30:17;1.23;;;1.05;;
67378;SDS011;54262;44.642;-0.974;2022-10-26T06:32:47;1.20;;;1.10;;
67378;SDS011;54262;44.642;-0.974;2022-10-26T06:37:45;2.28;;;1.40;;
67378;SDS011;54262;44.642;-0.974;2022-10-26T06:40:15;5.38;;;0.95;;
67378;SDS011;54262;44.642;-0.974;2022-10-26T06:42:42;1.30;;;1.15;;
67378;SDS011;54262;44.642;-0.974;2022-10-26T06:45:14;4.15;;;1.40;;
67378;SDS011;54262;44.642;-0.974;2022-10-26T06:55:14;1.35;;;1.15;;
67378;SDS011;54262;44.642;-0.974;2022-10-26T06:57:41;2.40;;;0.80;;
67378;SDS011;54262;44.642;-0.974;2022-10-26T07:00:13;0.95;;;0.90;;
67378;SDS011;54262;44.642;-0.974;2022-10-26T07:02:41;1.52;;;1.08;;
67378;SDS011;54262;44.642;-0.974;2022-10-26T07:05:07;1.83;;;1.05;;
67378;SDS011;54262;44.642;-0.974;2022-10-26T07:07:38;3.88;;;1.35;;
67378;SDS011;54262;44.642;-0.974;2022-10-26T07:10:05;1.30;;;1.05;;
67378;SDS011;54262;44.642;-0.974;2022-10-26T07:12:32;2.53;;;1.40;;
67378;SDS011;54262;44.642;-0.974;2022-10-26T07:14:58;1.38;;;1.10;;
67378;SDS011;54262;44.642;-0.974;2022-10-26T07:17:24;1.05;;;0.85;;
67378;SDS011;54262;44.642;-0.974;2022-10-26T07:19:52;1.17;;;1.15;;
67378;SDS011;54262;44.642;-0.974;2022-10-26T07:22:19;1.50;;;1.00;;
67378;SDS011;54262;44.642;-0.974;2022-10-26T07:24:45;0.82;;;0.80;;
67378;SDS011;54262;44.642;-0.974;2022-10-26T07:27:14;1.52;;;1.20;;
67378;SDS011;54262;44.642;-0.974;2022-10-26T07:29:41;1.30;;;1.23;;
67378;SDS011;54262;44.642;-0.974;2022-10-26T07:32:07;0.90;;;0.88;;
67378;SDS011;54262;44.642;-0.974;2022-10-26T07:34:33;2.10;;;1.60;;
67378;SDS011;54262;44.642;-0.974;2022-10-26T07:36:59;1.70;;;1.27;;
67378;SDS011;54262;44.642;-0.974;2022-10-26T07:39:25;2.47;;;1.23;;
67378;SDS011;54262;44.642;-0.974;2022-10-26T07:41:52;1.80;;;1.52;;
67378;SDS011;54262;44.642;-0.974;2022-10-26T07:44:18;0.90;;;0.88;;
67378;SDS011;54262;44.642;-0.974;2022-10-26T07:46:44;0.95;;;0.70;;
67378;SDS011;54262;44.642;-0.974;2022-10-26T07:49:10;1.13;;;1.05;;
67378;SDS011;54262;44.642;-0.974;2022-10-26T07:51:36;1.83;;;1.25;;
67378;SDS011;54262;44.642;-0.974;2022-10-26T07:54:02;3.13;;;1.45;;
67378;SDS011;54262;44.642;-0.974;2022-10-26T07:56:28;1.55;;;1.45;;
67378;SDS011;54262;44.642;-0.974;2022-10-26T07:58:55;1.27;;;1.17;;
67378;SDS011;54262;44.642;-0.974;2022-10-26T08:01:22;1.45;;;0.88;;
67378;SDS011;54262;44.642;-0.974;2022-10-26T08:03:51;1.85;;;1.50;;
67378;SDS011;54262;44.642;-0.974;2022-10-26T08:06:18;1.20;;;1.10;;
67378;SDS011;54262;44.642;-0.974;2022-10-26T08:08:44;1.20;;;1.10;;
67378;SDS011;54262;44.642;-0.974;2022-10-26T08:11:11;1.58;;;1.05;;
67378;SDS011;54262;44.642;-0.974;2022-10-26T08:13:37;1.30;;;0.98;;
67378;SDS011;54262;44.642;-0.974;2022-10-26T08:16:03;1.13;;;1.00;;
67378;SDS011;54262;44.642;-0.974;2022-10-26T08:18:30;0.98;;;0.80;;
67378;SDS011;54262;44.642;-0.974;2022-10-26T08:21:00;1.02;;;0.93;;
67378;SDS011;54262;44.642;-0.974;2022-10-26T08:23:27;4.63;;;1.10;;
67378;SDS011;54262;44.642;-0.974;2022-10-26T08:25:56;3.92;;;1.45;;
67378;SDS011;54262;44.642;-0.974;2022-10-26T08:28:22;1.80;;;1.70;;
67378;SDS011;54262;44.642;-0.974;2022-10-26T08:30:48;3.75;;;1.70;;
67378;SDS011;54262;44.642;-0.974;2022-10-26T08:33:15;4.18;;;1.70;;
67378;SDS011;54262;44.642;-0.974;2022-10-26T08:35:41;2.92;;;1.30;;
67378;SDS011;54262;44.642;-0.974;2022-10-26T08:38:07;3.03;;;1.48;;
67378;SDS011;54262;44.642;-0.974;2022-10-26T08:40:35;1.75;;;1.65;;
67378;SDS011;54262;44.642;-0.974;2022-10-26T08:45:55;2.97;;;1.40;;
67378;SDS011;54262;44.642;-0.974;2022-10-26T08:48:24;2.50;;;1.90;;
67378;SDS011;54262;44.642;-0.974;2022-10-26T08:50:53;7.57;;;1.83;;
67378;SDS011;54262;44.642;-0.974;2022-10-26T08:53:31;7.63;;;1.15;;
67378;SDS011;54262;44.642;-0.974;2022-10-26T08:56:00;3.47;;;1.60;;
67378;SDS011;54262;44.642;-0.974;2022-10-26T08:58:30;2.17;;;1.40;;
67378;SDS011;54262;44.642;-0.974;2022-10-26T09:00:57;5.43;;;1.70;;
67378;SDS011;54262;44.642;-0.974;2022-10-26T09:03:23;3.65;;;1.52;;
67378;SDS011;54262;44.642;-0.974;2022-10-26T09:16:34;11.57;;;6.47;;
67378;SDS011;54262;44.642;-0.974;2022-10-26T09:21:35;5.25;;;4.20;;
67378;SDS011;54262;44.642;-0.974;2022-10-26T09:24:24;5.88;;;2.58;;
67378;SDS011;54262;44.642;-0.974;2022-10-26T09:29:40;2.20;;;2.10;;
67378;SDS011;54262;44.642;-0.974;2022-10-26T09:32:16;1.80;;;1.70;;
67378;SDS011;54262;44.642;-0.974;2022-10-26T09:34:49;2.45;;;1.70;;
67378;SDS011;54262;44.642;-0.974;2022-10-26T09:37:25;2.10;;;1.73;;
67378;SDS011;54262;44.642;-0.974;2022-10-26T09:42:38;5.38;;;1.83;;
67378;SDS011;54262;44.642;-0.974;2022-10-26T09:45:17;1.98;;;1.52;;
67378;SDS011;54262;44.642;-0.974;2022-10-26T09:47:47;1.30;;;1.20;;
67378;SDS011;54262;44.642;-0.974;2022-10-26T09:50:17;1.90;;;1.50;;
67378;SDS011;54262;44.642;-0.974;2022-10-26T09:52:45;1.85;;;1.73;;
67378;SDS011;54262;44.642;-0.974;2022-10-26T09:55:11;1.48;;;1.30;;
67378;SDS011;54262;44.642;-0.974;2022-10-26T09:57:41;2.25;;;1.75;;
67378;SDS011;54262;44.642;-0.974;2022-10-26T10:00:11;4.32;;;2.65;;
67378;SDS011;54262;44.642;-0.974;2022-10-26T10:13:15;7.40;;;1.98;;
67378;SDS011;54262;44.642;-0.974;2022-10-26T10:15:49;2.85;;;2.20;;
67378;SDS011;54262;44.642;-0.974;2022-10-26T10:18:20;5.25;;;2.10;;
67378;SDS011;54262;44.642;-0.974;2022-10-26T10:20:50;1.83;;;1.67;;
67378;SDS011;54262;44.642;-0.974;2022-10-26T10:23:30;5.75;;;1.85;;
67378;SDS011;54262;44.642;-0.974;2022-10-26T10:25:57;4.68;;;1.70;;
67378;SDS011;54262;44.642;-0.974;2022-10-26T10:28:24;2.35;;;2.15;;
67378;SDS011;54262;44.642;-0.974;2022-10-26T10:30:51;4.78;;;2.05;;
67378;SDS011;54262;44.642;-0.974;2022-10-26T10:33:19;2.80;;;2.03;;
67378;SDS011;54262;44.642;-0.974;2022-10-26T10:35:49;7.28;;;2.42;;
67378;SDS011;54262;44.642;-0.974;2022-10-26T10:38:19;3.40;;;1.95;;
67378;SDS011;54262;44.642;-0.974;2022-10-26T10:40:50;1.77;;;1.17;;
67378;SDS011;54262;44.642;-0.974;2022-10-26T10:43:16;1.90;;;1.70;;
67378;SDS011;54262;44.642;-0.974;2022-10-26T10:45:46;5.78;;;1.98;;
67378;SDS011;54262;44.642;-0.974;2022-10-26T10:50:53;5.05;;;2.00;;
67378;SDS011;54262;44.642;-0.974;2022-10-26T10:58:37;5.85;;;1.90;;
67378;SDS011;54262;44.642;-0.974;2022-10-26T11:01:09;4.57;;;2.20;;
67378;SDS011;54262;44.642;-0.974;2022-10-26T11:03:46;6.05;;;2.10;;
67378;SDS011;54262;44.642;-0.974;2022-10-26T11:14:08;3.38;;;1.73;;
67378;SDS011;54262;44.642;-0.974;2022-10-26T11:21:37;4.80;;;2.33;;
67378;SDS011;54262;44.642;-0.974;2022-10-26T11:29:11;5.63;;;2.17;;
67378;SDS011;54262;44.642;-0.974;2022-10-26T11:31:43;7.07;;;2.17;;
67378;SDS011;54262;44.642;-0.974;2022-10-26T11:36:43;8.93;;;2.67;;
67378;SDS011;54262;44.642;-0.974;2022-10-26T11:39:18;4.43;;;2.42;;
67378;SDS011;54262;44.642;-0.974;2022-10-26T11:41:50;5.97;;;2.45;;
67378;SDS011;54262;44.642;-0.974;2022-10-26T11:46:58;7.32;;;2.75;;
67378;SDS011;54262;44.642;-0.974;2022-10-26T11:49:31;7.35;;;2.30;;
67378;SDS011;54262;44.642;-0.974;2022-10-26T11:52:01;21.13;;;2.20;;
67378;SDS011;54262;44.642;-0.974;2022-10-26T11:54:34;3.72;;;2.13;;
67378;SDS011;54262;44.642;-0.974;2022-10-26T11:57:02;14.45;;;2.63;;
67378;SDS011;54262;44.642;-0.974;2022-10-26T11:59:30;4.97;;;1.95;;
67378;SDS011;54262;44.642;-0.974;2022-10-26T12:02:05;2.65;;;2.10;;
67378;SDS011;54262;44.642;-0.974;2022-10-26T12:04:35;5.63;;;2.10;;
67378;SDS011;54262;44.642;-0.974;2022-10-26T12:07:03;7.85;;;2.90;;
67378;SDS011;54262;44.642;-0.974;2022-10-26T12:09:33;3.15;;;2.10;;
67378;SDS011;54262;44.642;-0.974;2022-10-26T12:12:36;2.45;;;2.20;;
67378;SDS011;54262;44.642;-0.974;2022-10-26T12:17:34;7.13;;;1.90;;
67378;SDS011;54262;44.642;-0.974;2022-10-26T12:20:05;1.75;;;1.55;;
67378;SDS011;54262;44.642;-0.974;2022-10-26T12:22:38;8.38;;;2.25;;
67378;SDS011;54262;44.642;-0.974;2022-10-26T12:27:31;6.10;;;1.63;;
67378;SDS011;54262;44.642;-0.974;2022-10-26T12:35:53;2.80;;;1.60;;
67378;SDS011;54262;44.642;-0.974;2022-10-26T12:37:54;6.10;;;1.90;;
67378;SDS011;54262;44.642;-0.974;2022-10-26T12:40:40;7.03;;;1.60;;
67378;SDS011;54262;44.642;-0.974;2022-10-26T12:45:38;2.20;;;1.95;;
67378;SDS011;54262;44.642;-0.974;2022-10-26T12:48:10;3.72;;;2.17;;
67378;SDS011;54262;44.642;-0.974;2022-10-26T12:50:45;1.95;;;1.52;;
67378;SDS011;54262;44.642;-0.974;2022-10-26T12:53:12;7.65;;;2.70;;
67378;SDS011;54262;44.642;-0.974;2022-10-26T13:00:50;4.85;;;2.58;;
67378;SDS011;54262;44.642;-0.974;2022-10-26T13:08:40;6.97;;;1.98;;
67378;SDS011;54262;44.642;-0.974;2022-10-26T13:13:39;1.80;;;1.70;;
67378;SDS011;54262;44.642;-0.974;2022-10-26T13:16:09;2.10;;;1.92;;
67378;SDS011;54262;44.642;-0.974;2022-10-26T13:18:45;2.67;;;2.22;;
67378;SDS011;54262;44.642;-0.974;2022-10-26T13:21:15;5.97;;;2.58;;
67378;SDS011;54262;44.642;-0.974;2022-10-26T13:23:45;2.50;;;2.30;;
67378;SDS011;54262;44.642;-0.974;2022-10-26T13:26:13;2.55;;;2.22;;
67378;SDS011;54262;44.642;-0.974;2022-10-26T13:33:40;2.25;;;2.03;;
67378;SDS011;54262;44.642;-0.974;2022-10-26T13:36:16;1.85;;;1.52;;
67378;SDS011;54262;44.642;-0.974;2022-10-26T13:38:43;3.38;;;1.88;;
67378;SDS011;54262;44.642;-0.974;2022-10-26T13:41:15;4.88;;;1.80;;
67378;SDS011;54262;44.642;-0.974;2022-10-26T13:43:43;3.00;;;1.70;;
67378;SDS011;54262;44.642;-0.974;2022-10-26T13:46:18;1.17;;;1.08;;
67378;SDS011;54262;44.642;-0.974;2022-10-26T13:48:45;3.35;;;1.45;;
67378;SDS011;54262;44.642;-0.974;2022-10-26T13:51:17;1.88;;;1.20;;
67378;SDS011;54262;44.642;-0.974;2022-10-26T13:53:46;5.90;;;1.75;;
67378;SDS011;54262;44.642;-0.974;2022-10-26T13:56:16;3.30;;;1.40;;
67378;SDS011;54262;44.642;-0.974;2022-10-26T13:58:49;1.77;;;1.20;;
67378;SDS011;54262;44.642;-0.974;2022-10-26T14:01:16;2.05;;;1.55;;
67378;SDS011;54262;44.642;-0.974;2022-10-26T14:03:45;1.83;;;1.45;;
67378;SDS011;54262;44.642;-0.974;2022-10-26T14:06:26;1.73;;;1.63;;
67378;SDS011;54262;44.642;-0.974;2022-10-26T14:08:54;1.50;;;1.40;;
67378;SDS011;54262;44.642;-0.974;2022-10-26T14:11:25;1.33;;;1.23;;
67378;SDS011;54262;44.642;-0.974;2022-10-26T14:13:52;2.10;;;1.15;;
67378;SDS011;54262;44.642;-0.974;2022-10-26T14:16:18;1.63;;;1.05;;
67378;SDS011;54262;44.642;-0.974;2022-10-26T14:18:46;3.22;;;1.30;;
67378;SDS011;54262;44.642;-0.974;2022-10-26T14:21:13;6.43;;;1.15;;
67378;SDS011;54262;44.642;-0.974;2022-10-26T14:23:57;1.10;;;1.08;;
67378;SDS011;54262;44.642;-0.974;2022-10-26T14:26:27;1.15;;;1.10;;
67378;SDS011;54262;44.642;-0.974;2022-10-26T14:28:57;1.27;;;1.17;;
67378;SDS011;54262;44.642;-0.974;2022-10-26T14:31:28;1.10;;;1.00;;
67378;SDS011;54262;44.642;-0.974;2022-10-26T14:33:55;1.40;;;1.15;;
67378;SDS011;54262;44.642;-0.974;2022-10-26T14:36:22;1.75;;;1.30;;
67378;SDS011;54262;44.642;-0.974;2022-10-26T14:38:51;1.30;;;1.20;;
67378;SDS011;54262;44.642;-0.974;2022-10-26T14:41:18;1.70;;;1.52;;
67378;SDS011;54262;44.642;-0.974;2022-10-26T14:43:45;0.70;;;0.70;;
67378;SDS011;54262;44.642;-0.974;2022-10-26T14:46:15;1.27;;;0.90;;
67378;SDS011;54262;44.642;-0.974;2022-10-26T14:48:51;1.48;;;1.35;;
67378;SDS011;54262;44.642;-0.974;2022-10-26T14:51:20;1.45;;;1.35;;
67378;SDS011;54262;44.642;-0.974;2022-10-26T14:53:50;2.38;;;1.50;;
67378;SDS011;54262;44.642;-0.974;2022-10-26T14:58:46;1.10;;;1.00;;
67378;SDS011;54262;44.642;-0.974;2022-10-26T15:03:48;1.33;;;1.13;;
67378;SDS011;54262;44.642;-0.974;2022-10-26T15:08:54;0.93;;;0.93;;
67378;SDS011;54262;44.642;-0.974;2022-10-26T15:11:21;0.98;;;0.98;;
67378;SDS011;54262;44.642;-0.974;2022-10-26T15:13:47;1.33;;;1.05;;
67378;SDS011;54262;44.642;-0.974;2022-10-26T15:16:26;1.55;;;1.45;;
67378;SDS011;54262;44.642;-0.974;2022-10-26T15:18:53;1.45;;;1.35;;
67378;SDS011;54262;44.642;-0.974;2022-10-26T15:21:30;1.67;;;0.98;;
67378;SDS011;54262;44.642;-0.974;2022-10-26T15:23:57;0.88;;;0.88;;
67378;SDS011;54262;44.642;-0.974;2022-10-26T15:26:23;1.27;;;1.17;;
67378;SDS011;54262;44.642;-0.974;2022-10-26T15:28:50;1.45;;;1.10;;
67378;SDS011;54262;44.642;-0.974;2022-10-26T15:36:18;1.40;;;0.90;;
67378;SDS011;54262;44.642;-0.974;2022-10-26T15:38:45;6.03;;;1.23;;
67378;SDS011;54262;44.642;-0.974;2022-10-26T15:43:49;2.10;;;1.05;;
67378;SDS011;54262;44.642;-0.974;2022-10-26T15:46:15;0.70;;;0.70;;
67378;SDS011;54262;44.642;-0.974;2022-10-26T15:48:42;2.17;;;0.90;;
67378;SDS011;54262;44.642;-0.974;2022-10-26T15:51:12;2.85;;;0.88;;
67378;SDS011;54262;44.642;-0.974;2022-10-26T15:53:38;1.23;;;1.13;;
67378;SDS011;54262;44.642;-0.974;2022-10-26T15:56:07;1.38;;;1.27;;
67378;SDS011;54262;44.642;-0.974;2022-10-26T15:58:38;1.55;;;1.10;;
67378;SDS011;54262;44.642;-0.974;2022-10-26T16:01:04;3.38;;;0.80;;
67378;SDS011;54262;44.642;-0.974;2022-10-26T16:03:30;2.55;;;0.82;;
67378;SDS011;54262;44.642;-0.974;2022-10-26T16:05:58;1.05;;;0.95;;
67378;SDS011;54262;44.642;-0.974;2022-10-26T16:08:25;1.30;;;1.00;;
67378;SDS011;54262;44.642;-0.974;2022-10-26T16:10:52;1.63;;;0.98;;
67378;SDS011;54262;44.642;-0.974;2022-10-26T16:13:18;1.38;;;0.93;;
67378;SDS011;54262;44.642;-0.974;2022-10-26T16:15:44;0.88;;;0.80;;
67378;SDS011;54262;44.642;-0.974;2022-10-26T16:18:10;4.13;;;0.80;;
67378;SDS011;54262;44.642;-0.974;2022-10-26T16:20:36;2.35;;;0.82;;
67378;SDS011;54262;44.642;-0.974;2022-10-26T16:23:03;1.50;;;1.40;;
67378;SDS011;54262;44.642;-0.974;2022-10-26T16:25:33;3.55;;;1.10;;
67378;SDS011;54262;44.642;-0.974;2022-10-26T16:27:59;0.80;;;0.75;;
67378;SDS011;54262;44.642;-0.974;2022-10-26T16:30:27;1.13;;;1.00;;
67378;SDS011;54262;44.642;-0.974;2022-10-26T16:32:54;1.05;;;0.85;;
67378;SDS011;54262;44.642;-0.974;2022-10-26T16:35:20;2.50;;;0.85;;
67378;SDS011;54262;44.642;-0.974;2022-10-26T16:37:47;0.80;;;0.68;;
67378;SDS011;54262;44.642;-0.974;2022-10-26T16:40:13;4.22;;;0.93;;
67378;SDS011;54262;44.642;-0.974;2022-10-26T16:42:39;1.02;;;0.77;;
67378;SDS011;54262;44.642;-0.974;2022-10-26T16:45:08;3.20;;;1.20;;
67378;SDS011;54262;44.642;-0.974;2022-10-26T16:47:34;0.75;;;0.73;;
67378;SDS011;54262;44.642;-0.974;2022-10-26T16:50:03;0.85;;;0.82;;
67378;SDS011;54262;44.642;-0.974;2022-10-26T16:52:29;2.50;;;1.17;;
67378;SDS011;54262;44.642;-0.974;2022-10-26T16:54:55;1.52;;;1.13;;
67378;SDS011;54262;44.642;-0.974;2022-10-26T16:57:21;1.13;;;1.02;;
67378;SDS011;54262;44.642;-0.974;2022-10-26T16:59:47;0.82;;;0.82;;
67378;SDS011;54262;44.642;-0.974;2022-10-26T17:02:14;1.33;;;1.00;;
67378;SDS011;54262;44.642;-0.974;2022-10-26T17:04:40;1.77;;;1.50;;
67378;SDS011;54262;44.642;-0.974;2022-10-26T17:07:06;1.45;;;0.90;;
67378;SDS011;54262;44.642;-0.974;2022-10-26T17:09:32;1.65;;;1.15;;
67378;SDS011;54262;44.642;-0.974;2022-10-26T17:11:58;0.75;;;0.75;;
67378;SDS011;54262;44.642;-0.974;2022-10-26T17:14:24;1.20;;;1.10;;
67378;SDS011;54262;44.642;-0.974;2022-10-26T17:16:50;0.70;;;0.70;;
67378;SDS011;54262;44.642;-0.974;2022-10-26T17:19:16;2.67;;;1.40;;
67378;SDS011;54262;44.642;-0.974;2022-10-26T17:21:42;0.75;;;0.75;;
67378;SDS011;54262;44.642;-0.974;2022-10-26T17:24:09;0.82;;;0.82;;